sensor_id;sensor_type;location;lat;lon;timestamp;temperature;humidity
81383;DHT22;70834;37.534;-122.308;2023-06-22T00:01:30;21.60;49.70
81383;DHT22;70834;37.534;-122.308;2023-06-22T00:03:53;21.60;49.90
81383;DHT22;70834;37.534;-122.308;2023-06-22T00:06:14;21.60;50.20
81383;DHT22;70834;37.534;-122.308;2023-06-22T00:08:36;21.50;50.20
81383;DHT22;70834;37.534;-122.308;2023-06-22T00:10:59;21.40;50.20
81383;DHT22;70834;37.534;-122.308;2023-06-22T00:13:21;21.40;50.10
81383;DHT22;70834;37.534;-122.308;2023-06-22T00:15:42;21.30;50.00
81383;DHT22;70834;37.534;-122.308;2023-06-22T00:18:04;21.20;50.30
81383;DHT22;70834;37.534;-122.308;2023-06-22T00:20:26;21.20;50.50
81383;DHT22;70834;37.534;-122.308;2023-06-22T00:22:51;21.10;51.00
81383;DHT22;70834;37.534;-122.308;2023-06-22T00:25:33;21.10;50.80
81383;DHT22;70834;37.534;-122.308;2023-06-22T00:27:54;21.00;51.00
81383;DHT22;70834;37.534;-122.308;2023-06-22T00:30:17;21.00;51.10
81383;DHT22;70834;37.534;-122.308;2023-06-22T00:32:39;20.90;51.20
81383;DHT22;70834;37.534;-122.308;2023-06-22T00:35:00;20.90;51.20
81383;DHT22;70834;37.534;-122.308;2023-06-22T00:37:21;20.80;51.30
81383;DHT22;70834;37.534;-122.308;2023-06-22T00:39:46;20.80;51.50
81383;DHT22;70834;37.534;-122.308;2023-06-22T00:42:07;20.70;51.50
81383;DHT22;70834;37.534;-122.308;2023-06-22T00:44:29;20.60;51.70
81383;DHT22;70834;37.534;-122.308;2023-06-22T00:46:52;20.50;52.10
81383;DHT22;70834;37.534;-122.308;2023-06-22T00:49:13;20.50;52.30
81383;DHT22;70834;37.534;-122.308;2023-06-22T00:51:35;20.40;52.50
81383;DHT22;70834;37.534;-122.308;2023-06-22T00:53:59;20.30;52.70
81383;DHT22;70834;37.534;-122.308;2023-06-22T00:56:21;20.30;52.70
81383;DHT22;70834;37.534;-122.308;2023-06-22T00:58:46;20.30;52.70
81383;DHT22;70834;37.534;-122.308;2023-06-22T01:01:08;20.20;52.70
81383;DHT22;70834;37.534;-122.308;2023-06-22T01:03:30;20.20;52.90
81383;DHT22;70834;37.534;-122.308;2023-06-22T01:05:51;20.10;52.90
81383;DHT22;70834;37.534;-122.308;2023-06-22T01:08:35;20.10;53.00
81383;DHT22;70834;37.534;-122.308;2023-06-22T01:11:26;20.00;52.90
81383;DHT22;70834;37.534;-122.308;2023-06-22T01:14:06;20.00;53.00
81383;DHT22;70834;37.534;-122.308;2023-06-22T01:16:33;19.90;53.30
81383;DHT22;70834;37.534;-122.308;2023-06-22T01:18:57;19.90;53.60
81383;DHT22;70834;37.534;-122.308;2023-06-22T01:21:25;19.90;53.70
81383;DHT22;70834;37.534;-122.308;2023-06-22T01:29:06;19.70;54.30
81383;DHT22;70834;37.534;-122.308;2023-06-22T01:31:30;19.60;54.80
81383;DHT22;70834;37.534;-122.308;2023-06-22T01:34:03;19.50;54.70
81383;DHT22;70834;37.534;-122.308;2023-06-22T01:36:26;19.40;54.80
81383;DHT22;70834;37.534;-122.308;2023-06-22T01:38:48;19.40;54.70
81383;DHT22;70834;37.534;-122.308;2023-06-22T01:41:11;19.40;55.10
81383;DHT22;70834;37.534;-122.308;2023-06-22T01:43:33;19.30;55.30
81383;DHT22;70834;37.534;-122.308;2023-06-22T01:45:56;19.30;55.40
81383;DHT22;70834;37.534;-122.308;2023-06-22T01:48:18;19.20;55.20
81383;DHT22;70834;37.534;-122.308;2023-06-22T01:50:42;19.20;55.60
81383;DHT22;70834;37.534;-122.308;2023-06-22T01:53:06;19.10;55.60
81383;DHT22;70834;37.534;-122.308;2023-06-22T01:55:29;19.00;55.90
81383;DHT22;70834;37.534;-122.308;2023-06-22T01:57:51;18.90;56.20
81383;DHT22;70834;37.534;-122.308;2023-06-22T02:00:20;18.80;56.40
81383;DHT22;70834;37.534;-122.308;2023-06-22T02:05:34;18.70;56.90
81383;DHT22;70834;37.534;-122.308;2023-06-22T02:08:15;18.70;57.00
81383;DHT22;70834;37.534;-122.308;2023-06-22T02:10:40;18.60;57.50
81383;DHT22;70834;37.534;-122.308;2023-06-22T02:13:04;18.50;57.50
81383;DHT22;70834;37.534;-122.308;2023-06-22T02:15:27;18.40;57.90
81383;DHT22;70834;37.534;-122.308;2023-06-22T02:17:50;18.40;58.10
81383;DHT22;70834;37.534;-122.308;2023-06-22T02:20:15;18.30;58.30
81383;DHT22;70834;37.534;-122.308;2023-06-22T02:22:37;18.10;58.40
81383;DHT22;70834;37.534;-122.308;2023-06-22T02:24:59;18.10;58.60
81383;DHT22;70834;37.534;-122.308;2023-06-22T02:27:20;18.10;58.50
81383;DHT22;70834;37.534;-122.308;2023-06-22T02:29:42;18.00;58.70
81383;DHT22;70834;37.534;-122.308;2023-06-22T02:32:03;18.00;58.90
81383;DHT22;70834;37.534;-122.308;2023-06-22T02:34:25;17.90;59.20
81383;DHT22;70834;37.534;-122.308;2023-06-22T02:36:48;17.80;59.30
81383;DHT22;70834;37.534;-122.308;2023-06-22T02:39:12;17.70;59.50
81383;DHT22;70834;37.534;-122.308;2023-06-22T02:41:35;17.60;59.50
81383;DHT22;70834;37.534;-122.308;2023-06-22T02:43:56;17.60;59.80
81383;DHT22;70834;37.534;-122.308;2023-06-22T02:46:18;17.40;59.90
81383;DHT22;70834;37.534;-122.308;2023-06-22T02:48:40;17.40;60.20
81383;DHT22;70834;37.534;-122.308;2023-06-22T02:51:02;17.30;60.60
81383;DHT22;70834;37.534;-122.308;2023-06-22T02:53:25;17.30;60.60
81383;DHT22;70834;37.534;-122.308;2023-06-22T02:55:46;17.20;60.60
81383;DHT22;70834;37.534;-122.308;2023-06-22T02:58:08;17.20;60.90
81383;DHT22;70834;37.534;-122.308;2023-06-22T03:00:31;17.10;61.00
81383;DHT22;70834;37.534;-122.308;2023-06-22T03:02:53;17.10;61.40
81383;DHT22;70834;37.534;-122.308;2023-06-22T03:05:15;17.00;61.70
81383;DHT22;70834;37.534;-122.308;2023-06-22T03:07:42;16.90;61.80
81383;DHT22;70834;37.534;-122.308;2023-06-22T03:10:04;16.90;62.20
81383;DHT22;70834;37.534;-122.308;2023-06-22T03:12:25;16.80;62.50
81383;DHT22;70834;37.534;-122.308;2023-06-22T03:14:47;16.80;62.60
81383;DHT22;70834;37.534;-122.308;2023-06-22T03:17:10;16.70;63.00
81383;DHT22;70834;37.534;-122.308;2023-06-22T03:19:32;16.60;63.20
81383;DHT22;70834;37.534;-122.308;2023-06-22T03:21:56;16.50;63.40
81383;DHT22;70834;37.534;-122.308;2023-06-22T03:24:17;16.40;63.40
81383;DHT22;70834;37.534;-122.308;2023-06-22T03:26:38;16.40;63.80
81383;DHT22;70834;37.534;-122.308;2023-06-22T03:29:00;16.30;63.80
81383;DHT22;70834;37.534;-122.308;2023-06-22T03:31:22;16.30;64.20
81383;DHT22;70834;37.534;-122.308;2023-06-22T03:33:43;16.20;64.40
81383;DHT22;70834;37.534;-122.308;2023-06-22T03:36:05;16.10;64.80
81383;DHT22;70834;37.534;-122.308;2023-06-22T03:38:27;16.10;64.90
81383;DHT22;70834;37.534;-122.308;2023-06-22T03:40:50;16.00;65.10
81383;DHT22;70834;37.534;-122.308;2023-06-22T03:43:11;16.00;65.30
81383;DHT22;70834;37.534;-122.308;2023-06-22T03:45:33;15.90;65.40
81383;DHT22;70834;37.534;-122.308;2023-06-22T03:47:54;15.80;65.50
81383;DHT22;70834;37.534;-122.308;2023-06-22T03:50:15;15.80;66.00
81383;DHT22;70834;37.534;-122.308;2023-06-22T03:52:37;15.70;66.00
81383;DHT22;70834;37.534;-122.308;2023-06-22T03:54:58;15.60;66.40
81383;DHT22;70834;37.534;-122.308;2023-06-22T03:57:20;15.60;66.60
81383;DHT22;70834;37.534;-122.308;2023-06-22T03:59:41;15.60;66.60
81383;DHT22;70834;37.534;-122.308;2023-06-22T04:02:03;15.50;66.80
81383;DHT22;70834;37.534;-122.308;2023-06-22T04:04:24;15.50;67.30
81383;DHT22;70834;37.534;-122.308;2023-06-22T04:06:46;15.50;67.40
81383;DHT22;70834;37.534;-122.308;2023-06-22T04:09:07;15.40;67.80
81383;DHT22;70834;37.534;-122.308;2023-06-22T04:11:29;15.30;67.90
81383;DHT22;70834;37.534;-122.308;2023-06-22T04:13:50;15.30;68.10
81383;DHT22;70834;37.534;-122.308;2023-06-22T04:16:12;15.20;68.30
81383;DHT22;70834;37.534;-122.308;2023-06-22T04:18:33;15.20;68.50
81383;DHT22;70834;37.534;-122.308;2023-06-22T04:20:55;15.20;68.30
81383;DHT22;70834;37.534;-122.308;2023-06-22T04:23:16;15.10;68.70
81383;DHT22;70834;37.534;-122.308;2023-06-22T04:25:38;15.10;68.70
81383;DHT22;70834;37.534;-122.308;2023-06-22T04:28:00;15.10;69.00
81383;DHT22;70834;37.534;-122.308;2023-06-22T04:30:24;15.10;69.20
81383;DHT22;70834;37.534;-122.308;2023-06-22T04:32:45;15.10;69.40
81383;DHT22;70834;37.534;-122.308;2023-06-22T04:35:17;15.00;69.50
81383;DHT22;70834;37.534;-122.308;2023-06-22T04:37:38;15.00;69.60
81383;DHT22;70834;37.534;-122.308;2023-06-22T04:40:00;14.90;70.00
81383;DHT22;70834;37.534;-122.308;2023-06-22T04:42:21;14.90;70.00
81383;DHT22;70834;37.534;-122.308;2023-06-22T04:44:43;14.90;70.10
81383;DHT22;70834;37.534;-122.308;2023-06-22T04:47:04;14.90;70.20
81383;DHT22;70834;37.534;-122.308;2023-06-22T04:49:28;14.90;70.30
81383;DHT22;70834;37.534;-122.308;2023-06-22T04:51:56;14.80;70.30
81383;DHT22;70834;37.534;-122.308;2023-06-22T04:54:18;14.80;70.50
81383;DHT22;70834;37.534;-122.308;2023-06-22T04:56:39;14.70;70.50
81383;DHT22;70834;37.534;-122.308;2023-06-22T04:59:02;14.70;70.60
81383;DHT22;70834;37.534;-122.308;2023-06-22T05:01:27;14.70;70.60
81383;DHT22;70834;37.534;-122.308;2023-06-22T05:03:48;14.60;70.60
81383;DHT22;70834;37.534;-122.308;2023-06-22T05:06:09;14.60;70.70
81383;DHT22;70834;37.534;-122.308;2023-06-22T05:08:31;14.60;70.90
81383;DHT22;70834;37.534;-122.308;2023-06-22T05:10:52;14.60;71.00
81383;DHT22;70834;37.534;-122.308;2023-06-22T05:13:14;14.60;71.30
81383;DHT22;70834;37.534;-122.308;2023-06-22T05:15:35;14.50;71.50
81383;DHT22;70834;37.534;-122.308;2023-06-22T05:18:00;14.50;71.60
81383;DHT22;70834;37.534;-122.308;2023-06-22T05:20:26;14.50;71.70
81383;DHT22;70834;37.534;-122.308;2023-06-22T05:22:47;14.50;71.80
81383;DHT22;70834;37.534;-122.308;2023-06-22T05:25:12;14.50;72.00
81383;DHT22;70834;37.534;-122.308;2023-06-22T05:27:34;14.40;71.90
81383;DHT22;70834;37.534;-122.308;2023-06-22T05:30:00;14.40;72.10
81383;DHT22;70834;37.534;-122.308;2023-06-22T05:32:21;14.40;72.30
81383;DHT22;70834;37.534;-122.308;2023-06-22T05:34:43;14.40;72.20
81383;DHT22;70834;37.534;-122.308;2023-06-22T05:37:04;14.40;72.30
81383;DHT22;70834;37.534;-122.308;2023-06-22T05:39:27;14.30;71.80
81383;DHT22;70834;37.534;-122.308;2023-06-22T05:41:48;14.30;72.40
81383;DHT22;70834;37.534;-122.308;2023-06-22T05:44:10;14.30;72.40
81383;DHT22;70834;37.534;-122.308;2023-06-22T05:46:31;14.20;72.40
81383;DHT22;70834;37.534;-122.308;2023-06-22T05:48:53;14.30;72.40
81383;DHT22;70834;37.534;-122.308;2023-06-22T05:51:14;14.20;72.50
81383;DHT22;70834;37.534;-122.308;2023-06-22T05:53:35;14.10;72.30
81383;DHT22;70834;37.534;-122.308;2023-06-22T05:55:57;14.10;72.20
81383;DHT22;70834;37.534;-122.308;2023-06-22T05:58:18;14.10;72.30
81383;DHT22;70834;37.534;-122.308;2023-06-22T06:00:41;14.10;72.30
81383;DHT22;70834;37.534;-122.308;2023-06-22T06:03:02;14.00;72.20
81383;DHT22;70834;37.534;-122.308;2023-06-22T06:05:24;14.00;72.20
81383;DHT22;70834;37.534;-122.308;2023-06-22T06:07:46;14.00;72.90
81383;DHT22;70834;37.534;-122.308;2023-06-22T06:10:08;13.90;73.20
81383;DHT22;70834;37.534;-122.308;2023-06-22T06:12:30;13.90;73.30
81383;DHT22;70834;37.534;-122.308;2023-06-22T06:14:51;13.90;73.40
81383;DHT22;70834;37.534;-122.308;2023-06-22T06:17:14;13.90;73.50
81383;DHT22;70834;37.534;-122.308;2023-06-22T06:19:35;13.90;73.60
81383;DHT22;70834;37.534;-122.308;2023-06-22T06:21:57;13.90;73.80
81383;DHT22;70834;37.534;-122.308;2023-06-22T06:24:18;13.80;73.80
81383;DHT22;70834;37.534;-122.308;2023-06-22T06:26:40;13.80;74.00
81383;DHT22;70834;37.534;-122.308;2023-06-22T06:29:01;13.80;74.00
81383;DHT22;70834;37.534;-122.308;2023-06-22T06:31:26;13.80;74.00
81383;DHT22;70834;37.534;-122.308;2023-06-22T06:33:51;13.80;74.00
81383;DHT22;70834;37.534;-122.308;2023-06-22T06:36:12;13.80;74.10
81383;DHT22;70834;37.534;-122.308;2023-06-22T06:38:34;13.80;74.60
81383;DHT22;70834;37.534;-122.308;2023-06-22T06:40:55;13.80;74.60
81383;DHT22;70834;37.534;-122.308;2023-06-22T06:43:17;13.80;74.60
81383;DHT22;70834;37.534;-122.308;2023-06-22T06:45:38;13.80;75.40
81383;DHT22;70834;37.534;-122.308;2023-06-22T06:48:00;13.80;74.70
81383;DHT22;70834;37.534;-122.308;2023-06-22T06:50:21;13.70;74.70
81383;DHT22;70834;37.534;-122.308;2023-06-22T06:52:43;13.70;74.80
81383;DHT22;70834;37.534;-122.308;2023-06-22T06:55:05;13.70;75.00
81383;DHT22;70834;37.534;-122.308;2023-06-22T06:57:29;13.70;75.10
81383;DHT22;70834;37.534;-122.308;2023-06-22T06:59:51;13.70;75.20
81383;DHT22;70834;37.534;-122.308;2023-06-22T07:02:12;13.70;75.20
81383;DHT22;70834;37.534;-122.308;2023-06-22T07:04:35;13.70;75.30
81383;DHT22;70834;37.534;-122.308;2023-06-22T07:06:58;13.60;75.40
81383;DHT22;70834;37.534;-122.308;2023-06-22T07:09:20;13.60;75.40
81383;DHT22;70834;37.534;-122.308;2023-06-22T07:11:41;13.60;75.50
81383;DHT22;70834;37.534;-122.308;2023-06-22T07:14:02;13.60;75.60
81383;DHT22;70834;37.534;-122.308;2023-06-22T07:16:24;13.60;75.90
81383;DHT22;70834;37.534;-122.308;2023-06-22T07:18:47;13.60;76.00
81383;DHT22;70834;37.534;-122.308;2023-06-22T07:21:08;13.60;76.00
81383;DHT22;70834;37.534;-122.308;2023-06-22T07:23:30;13.60;76.30
81383;DHT22;70834;37.534;-122.308;2023-06-22T07:25:51;13.60;76.40
81383;DHT22;70834;37.534;-122.308;2023-06-22T07:28:13;13.60;76.60
81383;DHT22;70834;37.534;-122.308;2023-06-22T07:30:35;13.60;76.60
81383;DHT22;70834;37.534;-122.308;2023-06-22T07:32:57;13.60;76.70
81383;DHT22;70834;37.534;-122.308;2023-06-22T07:35:19;13.60;76.70
81383;DHT22;70834;37.534;-122.308;2023-06-22T07:37:40;13.50;76.60
81383;DHT22;70834;37.534;-122.308;2023-06-22T07:40:02;13.50;76.60
81383;DHT22;70834;37.534;-122.308;2023-06-22T07:42:27;13.50;76.40
81383;DHT22;70834;37.534;-122.308;2023-06-22T07:44:51;13.50;76.50
81383;DHT22;70834;37.534;-122.308;2023-06-22T07:47:12;13.60;76.30
81383;DHT22;70834;37.534;-122.308;2023-06-22T07:49:34;13.50;76.50
81383;DHT22;70834;37.534;-122.308;2023-06-22T07:51:55;13.50;76.50
81383;DHT22;70834;37.534;-122.308;2023-06-22T07:54:17;13.50;76.60
81383;DHT22;70834;37.534;-122.308;2023-06-22T07:56:38;13.50;76.60
81383;DHT22;70834;37.534;-122.308;2023-06-22T07:59:00;13.50;76.80
81383;DHT22;70834;37.534;-122.308;2023-06-22T08:01:22;13.50;76.70
81383;DHT22;70834;37.534;-122.308;2023-06-22T08:03:44;13.50;77.00
81383;DHT22;70834;37.534;-122.308;2023-06-22T08:06:06;13.50;77.10
81383;DHT22;70834;37.534;-122.308;2023-06-22T08:08:29;13.50;77.00
81383;DHT22;70834;37.534;-122.308;2023-06-22T08:10:51;13.50;77.30
81383;DHT22;70834;37.534;-122.308;2023-06-22T08:13:12;13.40;77.00
81383;DHT22;70834;37.534;-122.308;2023-06-22T08:15:34;13.50;77.10
81383;DHT22;70834;37.534;-122.308;2023-06-22T08:17:55;13.40;77.20
81383;DHT22;70834;37.534;-122.308;2023-06-22T08:20:17;13.50;77.30
81383;DHT22;70834;37.534;-122.308;2023-06-22T08:22:39;13.40;77.40
81383;DHT22;70834;37.534;-122.308;2023-06-22T08:25:00;13.40;77.60
81383;DHT22;70834;37.534;-122.308;2023-06-22T08:27:22;13.40;77.50
81383;DHT22;70834;37.534;-122.308;2023-06-22T08:29:44;13.40;77.50
81383;DHT22;70834;37.534;-122.308;2023-06-22T08:32:09;13.40;77.70
81383;DHT22;70834;37.534;-122.308;2023-06-22T08:34:30;13.40;77.70
81383;DHT22;70834;37.534;-122.308;2023-06-22T08:36:52;13.40;77.70
81383;DHT22;70834;37.534;-122.308;2023-06-22T08:39:14;13.40;77.80
81383;DHT22;70834;37.534;-122.308;2023-06-22T08:41:35;13.40;78.10
81383;DHT22;70834;37.534;-122.308;2023-06-22T08:43:56;13.30;78.00
81383;DHT22;70834;37.534;-122.308;2023-06-22T08:46:19;13.30;77.90
81383;DHT22;70834;37.534;-122.308;2023-06-22T08:48:44;13.30;78.00
81383;DHT22;70834;37.534;-122.308;2023-06-22T08:51:05;13.30;78.10
81383;DHT22;70834;37.534;-122.308;2023-06-22T08:53:26;13.30;78.10
81383;DHT22;70834;37.534;-122.308;2023-06-22T08:55:48;13.30;78.00
81383;DHT22;70834;37.534;-122.308;2023-06-22T08:58:11;13.30;78.30
81383;DHT22;70834;37.534;-122.308;2023-06-22T09:00:33;13.40;78.40
81383;DHT22;70834;37.534;-122.308;2023-06-22T09:02:55;13.40;78.40
81383;DHT22;70834;37.534;-122.308;2023-06-22T09:05:19;13.40;78.30
81383;DHT22;70834;37.534;-122.308;2023-06-22T09:07:43;13.40;78.30
81383;DHT22;70834;37.534;-122.308;2023-06-22T09:10:05;13.30;78.40
81383;DHT22;70834;37.534;-122.308;2023-06-22T09:12:26;13.40;78.30
81383;DHT22;70834;37.534;-122.308;2023-06-22T09:14:51;13.40;78.40
81383;DHT22;70834;37.534;-122.308;2023-06-22T09:17:13;13.40;78.40
81383;DHT22;70834;37.534;-122.308;2023-06-22T09:19:35;13.40;78.60
81383;DHT22;70834;37.534;-122.308;2023-06-22T09:21:56;13.40;78.90
81383;DHT22;70834;37.534;-122.308;2023-06-22T09:24:18;13.40;79.00
81383;DHT22;70834;37.534;-122.308;2023-06-22T09:26:39;13.40;79.00
81383;DHT22;70834;37.534;-122.308;2023-06-22T09:29:01;13.30;79.00
81383;DHT22;70834;37.534;-122.308;2023-06-22T09:31:22;13.30;79.00
81383;DHT22;70834;37.534;-122.308;2023-06-22T09:33:46;13.30;79.00
81383;DHT22;70834;37.534;-122.308;2023-06-22T09:36:08;13.40;79.00
81383;DHT22;70834;37.534;-122.308;2023-06-22T09:38:29;13.40;79.10
81383;DHT22;70834;37.534;-122.308;2023-06-22T09:40:51;13.40;79.20
81383;DHT22;70834;37.534;-122.308;2023-06-22T09:43:12;13.40;79.30
81383;DHT22;70834;37.534;-122.308;2023-06-22T09:45:33;13.50;79.30
81383;DHT22;70834;37.534;-122.308;2023-06-22T09:47:55;13.50;79.50
81383;DHT22;70834;37.534;-122.308;2023-06-22T09:50:16;13.50;79.50
81383;DHT22;70834;37.534;-122.308;2023-06-22T09:52:38;13.60;79.40
81383;DHT22;70834;37.534;-122.308;2023-06-22T09:54:59;13.60;79.30
81383;DHT22;70834;37.534;-122.308;2023-06-22T09:57:21;13.70;79.00
81383;DHT22;70834;37.534;-122.308;2023-06-22T09:59:42;13.70;78.70
81383;DHT22;70834;37.534;-122.308;2023-06-22T10:02:04;13.70;78.60
81383;DHT22;70834;37.534;-122.308;2023-06-22T10:04:25;13.80;78.50
81383;DHT22;70834;37.534;-122.308;2023-06-22T10:06:47;13.80;78.40
81383;DHT22;70834;37.534;-122.308;2023-06-22T10:09:09;13.80;78.10
81383;DHT22;70834;37.534;-122.308;2023-06-22T10:11:30;13.90;78.00
81383;DHT22;70834;37.534;-122.308;2023-06-22T10:13:52;13.90;77.70
81383;DHT22;70834;37.534;-122.308;2023-06-22T10:16:13;13.90;77.50
81383;DHT22;70834;37.534;-122.308;2023-06-22T10:18:35;13.90;77.30
81383;DHT22;70834;37.534;-122.308;2023-06-22T10:20:56;14.00;77.00
81383;DHT22;70834;37.534;-122.308;2023-06-22T10:23:19;14.00;76.90
81383;DHT22;70834;37.534;-122.308;2023-06-22T10:25:40;14.10;76.80
81383;DHT22;70834;37.534;-122.308;2023-06-22T10:28:02;14.10;76.80
81383;DHT22;70834;37.534;-122.308;2023-06-22T10:30:23;14.10;76.80
81383;DHT22;70834;37.534;-122.308;2023-06-22T10:32:45;14.10;76.70
81383;DHT22;70834;37.534;-122.308;2023-06-22T10:35:06;14.20;76.60
81383;DHT22;70834;37.534;-122.308;2023-06-22T10:37:28;14.20;76.50
81383;DHT22;70834;37.534;-122.308;2023-06-22T10:39:49;14.20;76.30
81383;DHT22;70834;37.534;-122.308;2023-06-22T10:42:11;14.20;76.00
81383;DHT22;70834;37.534;-122.308;2023-06-22T10:44:33;14.30;75.70
81383;DHT22;70834;37.534;-122.308;2023-06-22T10:46:55;14.30;75.40
81383;DHT22;70834;37.534;-122.308;2023-06-22T10:49:16;14.30;75.20
81383;DHT22;70834;37.534;-122.308;2023-06-22T10:51:37;14.30;75.20
81383;DHT22;70834;37.534;-122.308;2023-06-22T10:53:59;14.40;75.10
81383;DHT22;70834;37.534;-122.308;2023-06-22T10:56:20;14.40;75.60
81383;DHT22;70834;37.534;-122.308;2023-06-22T10:58:42;14.40;74.90
81383;DHT22;70834;37.534;-122.308;2023-06-22T11:01:04;14.40;74.80
81383;DHT22;70834;37.534;-122.308;2023-06-22T11:03:25;14.40;74.60
81383;DHT22;70834;37.534;-122.308;2023-06-22T11:05:47;14.50;74.60
81383;DHT22;70834;37.534;-122.308;2023-06-22T11:08:08;14.50;74.50
81383;DHT22;70834;37.534;-122.308;2023-06-22T11:10:30;14.50;74.40
81383;DHT22;70834;37.534;-122.308;2023-06-22T11:12:51;14.50;74.30
81383;DHT22;70834;37.534;-122.308;2023-06-22T11:15:14;14.60;74.30
81383;DHT22;70834;37.534;-122.308;2023-06-22T11:17:35;14.60;74.30
81383;DHT22;70834;37.534;-122.308;2023-06-22T11:19:57;14.60;73.90
81383;DHT22;70834;37.534;-122.308;2023-06-22T11:22:19;14.70;73.90
81383;DHT22;70834;37.534;-122.308;2023-06-22T11:24:41;14.60;73.80
81383;DHT22;70834;37.534;-122.308;2023-06-22T11:27:02;14.70;73.90
81383;DHT22;70834;37.534;-122.308;2023-06-22T11:29:24;14.70;73.70
81383;DHT22;70834;37.534;-122.308;2023-06-22T11:31:45;14.70;73.50
81383;DHT22;70834;37.534;-122.308;2023-06-22T11:34:07;14.80;73.40
81383;DHT22;70834;37.534;-122.308;2023-06-22T11:36:29;14.80;73.30
81383;DHT22;70834;37.534;-122.308;2023-06-22T11:38:53;14.80;73.40
81383;DHT22;70834;37.534;-122.308;2023-06-22T11:41:15;14.80;73.20
81383;DHT22;70834;37.534;-122.308;2023-06-22T11:43:37;14.90;73.30
81383;DHT22;70834;37.534;-122.308;2023-06-22T11:45:58;14.90;73.10
81383;DHT22;70834;37.534;-122.308;2023-06-22T11:48:19;14.90;73.00
81383;DHT22;70834;37.534;-122.308;2023-06-22T11:50:41;14.90;72.70
81383;DHT22;70834;37.534;-122.308;2023-06-22T11:53:03;14.90;72.60
81383;DHT22;70834;37.534;-122.308;2023-06-22T11:55:24;15.00;72.30
81383;DHT22;70834;37.534;-122.308;2023-06-22T11:57:56;15.00;72.10
81383;DHT22;70834;37.534;-122.308;2023-06-22T12:00:20;15.00;72.00
81383;DHT22;70834;37.534;-122.308;2023-06-22T12:02:44;15.00;72.00
81383;DHT22;70834;37.534;-122.308;2023-06-22T12:05:06;15.00;72.00
81383;DHT22;70834;37.534;-122.308;2023-06-22T12:07:28;15.10;71.90
81383;DHT22;70834;37.534;-122.308;2023-06-22T12:09:50;15.10;71.80
81383;DHT22;70834;37.534;-122.308;2023-06-22T12:12:11;15.10;71.80
81383;DHT22;70834;37.534;-122.308;2023-06-22T12:14:33;15.10;71.80
81383;DHT22;70834;37.534;-122.308;2023-06-22T12:16:54;15.10;71.60
81383;DHT22;70834;37.534;-122.308;2023-06-22T12:19:16;15.10;71.40
81383;DHT22;70834;37.534;-122.308;2023-06-22T12:21:37;15.10;71.10
81383;DHT22;70834;37.534;-122.308;2023-06-22T12:24:00;15.10;70.90
81383;DHT22;70834;37.534;-122.308;2023-06-22T12:26:21;15.10;70.80
81383;DHT22;70834;37.534;-122.308;2023-06-22T12:28:43;15.10;70.70
81383;DHT22;70834;37.534;-122.308;2023-06-22T12:31:04;15.00;70.80
81383;DHT22;70834;37.534;-122.308;2023-06-22T12:33:26;15.00;71.00
81383;DHT22;70834;37.534;-122.308;2023-06-22T12:35:47;14.90;71.10
81383;DHT22;70834;37.534;-122.308;2023-06-22T12:38:09;14.90;71.30
81383;DHT22;70834;37.534;-122.308;2023-06-22T12:40:31;14.90;71.50
81383;DHT22;70834;37.534;-122.308;2023-06-22T12:42:54;14.90;71.90
81383;DHT22;70834;37.534;-122.308;2023-06-22T12:45:15;14.90;71.90
81383;DHT22;70834;37.534;-122.308;2023-06-22T12:47:37;14.90;72.10
81383;DHT22;70834;37.534;-122.308;2023-06-22T12:49:58;14.90;72.00
81383;DHT22;70834;37.534;-122.308;2023-06-22T12:52:20;14.90;71.90
81383;DHT22;70834;37.534;-122.308;2023-06-22T12:54:41;15.00;72.00
81383;DHT22;70834;37.534;-122.308;2023-06-22T12:57:03;15.00;72.40
81383;DHT22;70834;37.534;-122.308;2023-06-22T12:59:24;15.10;71.70
81383;DHT22;70834;37.534;-122.308;2023-06-22T13:01:46;15.10;71.70
81383;DHT22;70834;37.534;-122.308;2023-06-22T13:04:07;15.10;71.60
81383;DHT22;70834;37.534;-122.308;2023-06-22T13:06:29;15.10;71.60
81383;DHT22;70834;37.534;-122.308;2023-06-22T13:08:51;15.10;71.60
81383;DHT22;70834;37.534;-122.308;2023-06-22T13:11:30;15.20;71.60
81383;DHT22;70834;37.534;-122.308;2023-06-22T13:13:52;15.20;71.60
81383;DHT22;70834;37.534;-122.308;2023-06-22T13:16:13;15.20;71.60
81383;DHT22;70834;37.534;-122.308;2023-06-22T13:18:35;15.20;71.50
81383;DHT22;70834;37.534;-122.308;2023-06-22T13:20:56;15.30;71.50
81383;DHT22;70834;37.534;-122.308;2023-06-22T13:23:19;15.30;71.10
81383;DHT22;70834;37.534;-122.308;2023-06-22T13:25:40;15.40;70.80
81383;DHT22;70834;37.534;-122.308;2023-06-22T13:28:01;15.40;70.70
81383;DHT22;70834;37.534;-122.308;2023-06-22T13:30:23;15.40;70.50
81383;DHT22;70834;37.534;-122.308;2023-06-22T13:32:44;15.40;70.10
81383;DHT22;70834;37.534;-122.308;2023-06-22T13:35:06;15.40;70.00
81383;DHT22;70834;37.534;-122.308;2023-06-22T13:37:27;15.50;70.10
81383;DHT22;70834;37.534;-122.308;2023-06-22T13:39:49;15.50;69.90
81383;DHT22;70834;37.534;-122.308;2023-06-22T13:42:10;15.50;69.40
81383;DHT22;70834;37.534;-122.308;2023-06-22T13:44:32;15.60;69.20
81383;DHT22;70834;37.534;-122.308;2023-06-22T13:46:54;15.60;69.00
81383;DHT22;70834;37.534;-122.308;2023-06-22T13:49:15;15.60;68.80
81383;DHT22;70834;37.534;-122.308;2023-06-22T13:51:37;15.60;68.80
81383;DHT22;70834;37.534;-122.308;2023-06-22T13:53:58;15.70;68.70
81383;DHT22;70834;37.534;-122.308;2023-06-22T13:56:20;15.70;68.70
81383;DHT22;70834;37.534;-122.308;2023-06-22T13:58:42;15.70;68.50
81383;DHT22;70834;37.534;-122.308;2023-06-22T14:01:04;15.80;68.10
81383;DHT22;70834;37.534;-122.308;2023-06-22T14:03:26;15.80;67.90
81383;DHT22;70834;37.534;-122.308;2023-06-22T14:05:47;15.80;67.90
81383;DHT22;70834;37.534;-122.308;2023-06-22T14:08:09;15.80;67.50
81383;DHT22;70834;37.534;-122.308;2023-06-22T14:10:30;15.90;67.40
81383;DHT22;70834;37.534;-122.308;2023-06-22T14:12:52;15.90;67.20
81383;DHT22;70834;37.534;-122.308;2023-06-22T14:15:14;15.90;67.10
81383;DHT22;70834;37.534;-122.308;2023-06-22T14:17:35;15.90;67.00
81383;DHT22;70834;37.534;-122.308;2023-06-22T14:19:57;15.90;66.80
81383;DHT22;70834;37.534;-122.308;2023-06-22T14:22:22;15.90;67.00
81383;DHT22;70834;37.534;-122.308;2023-06-22T14:24:43;15.90;66.80
81383;DHT22;70834;37.534;-122.308;2023-06-22T14:27:05;15.90;66.50